createdAt,value
2023-07-24T00:02:04.318Z,14.15
2023-07-24T00:07:05.782Z,11.82
2023-07-24T00:12:07.478Z,12.40
2023-07-24T00:17:08.863Z,13.70
2023-07-24T00:22:10.256Z,13.65
2023-07-24T00:27:11.575Z,10.40
2023-07-24T00:32:12.894Z,13.07
2023-07-24T00:37:14.230Z,11.57
2023-07-24T00:42:15.513Z,12.60
2023-07-24T00:47:17.374Z,10.60
2023-07-24T00:52:18.736Z,11.73
2023-07-24T00:57:20.810Z,12.27
2023-07-24T01:02:22.238Z,11.37
2023-07-24T01:07:23.647Z,12.07
2023-07-24T01:12:27.703Z,11.70
2023-07-24T01:17:32.340Z,11.13
2023-07-24T01:22:39.424Z,11.17
2023-07-24T01:27:44.823Z,11.63
2023-07-24T01:32:46.337Z,12.52
2023-07-24T01:37:48.013Z,11.47
2023-07-24T01:42:50.931Z,12.52
2023-07-24T01:47:52.363Z,11.98
2023-07-24T01:52:53.817Z,11.40
2023-07-24T01:57:55.169Z,14.30
2023-07-24T02:02:56.543Z,12.57
2023-07-24T02:07:57.947Z,12.27
2023-07-24T02:12:59.407Z,11.40
2023-07-24T02:18:00.802Z,11.95
2023-07-24T02:23:02.110Z,13.13
2023-07-24T02:28:03.442Z,12.90
2023-07-24T02:33:04.728Z,11.15
2023-07-24T02:38:06.215Z,12.20
2023-07-24T02:43:07.566Z,12.23
2023-07-24T02:48:09.081Z,12.32
2023-07-24T02:53:10.430Z,11.23
2023-07-24T02:58:13.207Z,10.17
2023-07-24T03:03:14.634Z,13.87
2023-07-24T03:08:16.010Z,11.40
2023-07-24T03:13:17.358Z,11.93
2023-07-24T03:18:18.669Z,12.10
2023-07-24T03:23:21.175Z,13.30
2023-07-24T03:28:22.525Z,12.73
2023-07-24T03:33:23.843Z,13.40
2023-07-24T03:38:25.181Z,11.60
2023-07-24T03:43:26.531Z,11.57
2023-07-24T03:48:27.824Z,15.27
2023-07-24T03:53:29.432Z,13.13
2023-07-24T03:58:30.777Z,15.45
2023-07-24T04:03:32.211Z,14.68
2023-07-24T04:08:33.588Z,13.87
2023-07-24T04:13:34.919Z,14.93
2023-07-24T04:18:36.285Z,12.95
2023-07-24T04:23:38.428Z,14.73
2023-07-24T04:28:39.812Z,11.82
2023-07-24T04:33:41.109Z,16.02
2023-07-24T04:38:42.432Z,14.47
2023-07-24T04:43:43.761Z,14.20
2023-07-24T04:48:45.091Z,18.13
2023-07-24T04:53:46.426Z,13.77
2023-07-24T04:58:47.780Z,19.47
2023-07-24T05:03:49.113Z,17.48
2023-07-24T05:08:50.450Z,16.85
2023-07-24T05:13:52.892Z,20.60
2023-07-24T05:18:54.221Z,18.15
2023-07-24T05:23:55.512Z,15.82
2023-07-24T05:28:56.896Z,22.67
2023-07-24T05:33:58.227Z,14.73
2023-07-24T05:38:59.545Z,12.02
2023-07-24T05:44:00.873Z,19.45
2023-07-24T05:49:02.612Z,20.57
2023-07-24T05:54:03.962Z,23.77
2023-07-24T05:59:05.293Z,14.07
2023-07-24T06:04:08.298Z,17.27
2023-07-24T06:09:09.710Z,25.88
2023-07-24T06:14:11.034Z,20.45
2023-07-24T06:19:12.391Z,14.30
2023-07-24T06:24:14.281Z,15.03
2023-07-24T06:29:15.871Z,16.27
2023-07-24T06:34:17.353Z,22.02
2023-07-24T06:39:18.705Z,13.93
2023-07-24T06:44:20.031Z,15.20
2023-07-24T06:49:21.406Z,13.70
2023-07-24T06:54:22.754Z,15.63
2023-07-24T06:59:24.271Z,19.55
2023-07-24T07:04:25.613Z,14.52
2023-07-24T07:09:26.959Z,16.60
2023-07-24T07:14:28.408Z,15.53
2023-07-24T07:19:29.790Z,16.55
2023-07-24T07:24:31.218Z,19.67
2023-07-24T07:29:32.647Z,14.97
2023-07-24T07:34:35.789Z,12.98
2023-07-24T07:39:37.280Z,18.83
2023-07-24T07:44:38.627Z,14.53
2023-07-24T07:49:43.388Z,14.32
2023-07-24T07:54:48.459Z,16.30
2023-07-24T07:59:49.792Z,13.10
2023-07-24T08:04:51.095Z,17.27
2023-07-24T08:09:52.388Z,14.07
2023-07-24T08:14:53.715Z,15.27
2023-07-24T08:19:55.058Z,15.10
2023-07-24T08:24:57.369Z,13.35
2023-07-24T08:29:58.861Z,15.75
2023-07-24T08:35:00.206Z,13.67
2023-07-24T08:40:01.653Z,16.50
2023-07-24T08:45:03.089Z,15.27
2023-07-24T08:50:04.610Z,15.53
2023-07-24T08:55:06.294Z,14.57
2023-07-24T09:00:07.964Z,15.35
2023-07-24T09:05:09.407Z,15.88
2023-07-24T09:10:12.231Z,14.00
2023-07-24T09:15:13.950Z,16.33
2023-07-24T09:20:15.424Z,15.23
2023-07-24T09:25:16.839Z,13.97
2023-07-24T09:30:20.365Z,13.55
2023-07-24T09:35:27.054Z,20.60
2023-07-24T09:40:28.382Z,13.13
2023-07-24T09:45:30.175Z,19.27
2023-07-24T09:50:31.688Z,16.45
2023-07-24T09:55:38.332Z,17.35
2023-07-24T10:00:39.793Z,20.07
2023-07-24T10:05:41.191Z,29.00
2023-07-24T10:10:42.798Z,15.70
2023-07-24T10:15:45.033Z,13.77
2023-07-24T10:20:46.702Z,15.82
2023-07-24T10:25:50.910Z,17.48
2023-07-24T10:30:57.087Z,13.97
2023-07-24T10:36:06.088Z,14.67
2023-07-24T10:41:08.263Z,14.13
2023-07-24T10:46:09.782Z,13.00
2023-07-24T10:51:11.542Z,13.67
2023-07-24T10:56:13.381Z,13.13
2023-07-24T11:01:15.843Z,12.48
2023-07-24T11:06:18.057Z,12.37
2023-07-24T11:11:19.393Z,13.68
2023-07-24T11:16:20.765Z,13.05
2023-07-24T11:21:23.811Z,11.37
2023-07-24T11:26:26.491Z,13.83
2023-07-24T11:31:27.924Z,11.32
2023-07-24T11:36:29.489Z,11.88
2023-07-24T11:41:31.061Z,13.00
2023-07-24T11:46:33.338Z,11.95
2023-07-24T11:51:37.782Z,12.00
2023-07-24T11:56:39.106Z,11.30
2023-07-24T12:01:40.603Z,11.32
2023-07-24T12:06:42.350Z,13.27
2023-07-24T12:11:46.542Z,12.20
2023-07-24T12:16:48.343Z,13.20
2023-07-24T12:21:49.714Z,12.93
2023-07-24T12:26:51.037Z,15.45
2023-07-24T12:31:52.394Z,13.17
2023-07-24T12:36:54.878Z,23.15
2023-07-24T12:41:56.355Z,48.88
2023-07-24T12:46:57.725Z,56.10
2023-07-24T12:51:59.084Z,19.05
2023-07-24T12:57:00.486Z,11.45
2023-07-24T13:02:01.891Z,12.83
2023-07-24T13:07:05.358Z,12.83
2023-07-24T13:12:07.135Z,19.13
2023-07-24T13:17:08.523Z,26.00
2023-07-24T13:22:09.823Z,16.47
2023-07-24T13:27:11.119Z,11.02
2023-07-24T13:32:12.485Z,11.35
2023-07-24T13:37:13.910Z,11.83
2023-07-24T13:42:15.222Z,10.95
2023-07-24T13:47:16.547Z,19.05
2023-07-24T13:52:17.980Z,13.47
2023-07-24T13:57:19.358Z,13.90
2023-07-24T14:02:20.829Z,13.38
2023-07-24T14:07:22.215Z,12.25
2023-07-24T14:12:23.592Z,42.30
2023-07-24T14:17:24.952Z,19.63
2023-07-24T14:22:28.367Z,16.45
2023-07-24T14:27:29.917Z,14.43
2023-07-24T14:32:31.395Z,29.17
2023-07-24T14:37:32.789Z,10.82
2023-07-24T14:42:34.166Z,15.63
2023-07-24T14:47:35.571Z,8.83
2023-07-24T14:52:36.911Z,19.10
2023-07-24T14:57:38.330Z,37.80
2023-07-24T15:02:39.731Z,18.10
2023-07-24T15:07:41.065Z,26.52
2023-07-24T15:12:42.382Z,17.98
2023-07-24T15:17:43.855Z,11.30
2023-07-24T15:22:45.205Z,8.38
2023-07-24T15:27:46.615Z,11.18
2023-07-24T15:32:48.102Z,17.47
2023-07-24T15:37:49.821Z,15.43
2023-07-24T15:42:51.174Z,9.18
2023-07-24T15:47:52.598Z,8.77
2023-07-24T15:52:53.985Z,9.67
2023-07-24T15:57:55.438Z,8.93
2023-07-24T16:02:57.194Z,8.70
2023-07-24T16:07:58.657Z,10.17
2023-07-24T16:12:59.976Z,8.68
2023-07-24T16:23:05.845Z,8.73
2023-07-24T16:28:07.209Z,8.27
2023-07-24T16:33:08.583Z,7.65
2023-07-24T16:38:09.994Z,10.55
2023-07-24T16:43:11.494Z,6.93
2023-07-24T16:48:12.958Z,7.30
2023-07-24T16:53:14.418Z,6.95
2023-07-24T16:58:15.927Z,6.37
2023-07-24T17:03:17.449Z,7.20
2023-07-24T17:08:18.859Z,8.57
2023-07-24T17:13:20.226Z,7.17
2023-07-24T17:18:21.670Z,7.17
2023-07-24T17:23:23.024Z,9.75
2023-07-24T17:28:24.404Z,8.45
2023-07-24T17:33:26.423Z,5.33
2023-07-24T17:38:27.891Z,7.22
2023-07-24T17:43:29.291Z,5.75
2023-07-24T17:48:30.693Z,7.37
2023-07-24T17:53:32.193Z,7.28
2023-07-24T17:58:33.500Z,5.25
2023-07-24T18:03:35.320Z,7.20
2023-07-24T18:08:36.746Z,7.80
2023-07-24T18:13:38.157Z,9.00
2023-07-24T18:18:39.478Z,7.15
2023-07-24T18:23:40.755Z,5.93
2023-07-24T18:28:42.203Z,5.20
2023-07-24T18:33:43.550Z,6.18
2023-07-24T18:38:44.880Z,6.97
2023-07-24T18:43:46.219Z,5.88
2023-07-24T18:48:48.185Z,5.57
2023-07-24T18:53:52.764Z,5.87
2023-07-24T18:58:54.052Z,16.33
2023-07-24T19:03:55.442Z,7.65
2023-07-24T19:08:56.777Z,6.13
2023-07-24T19:13:58.133Z,6.70
2023-07-24T19:19:03.468Z,5.63
2023-07-24T19:24:04.998Z,7.53
2023-07-24T19:29:06.378Z,8.73
2023-07-24T19:34:08.108Z,7.43
2023-07-24T19:39:09.478Z,7.45
2023-07-24T19:44:10.910Z,5.70
2023-07-24T19:49:12.271Z,7.30
2023-07-24T19:54:13.622Z,8.30
2023-07-24T19:59:14.977Z,10.88
2023-07-24T20:04:16.337Z,6.03
2023-07-24T20:09:17.734Z,5.75
2023-07-24T20:14:19.145Z,6.70
2023-07-24T20:19:22.518Z,6.60
2023-07-24T20:24:23.885Z,6.97
2023-07-24T20:29:25.259Z,9.77
2023-07-24T20:34:26.643Z,7.47
2023-07-24T20:39:28.070Z,6.27
2023-07-24T20:44:29.536Z,7.10
2023-07-24T20:49:30.943Z,8.07
2023-07-24T20:54:32.465Z,7.93
2023-07-24T20:59:33.815Z,5.50
2023-07-24T21:04:35.230Z,6.35
2023-07-24T21:09:39.365Z,8.00
2023-07-24T21:14:40.780Z,8.10
2023-07-24T21:19:42.137Z,10.57
2023-07-24T21:24:43.492Z,6.70
2023-07-24T21:29:44.901Z,8.87
2023-07-24T21:34:46.189Z,7.78
2023-07-24T21:39:47.528Z,5.25
2023-07-24T21:44:48.891Z,5.83
2023-07-24T21:49:50.167Z,8.52
2023-07-24T21:54:51.521Z,8.15
2023-07-24T21:59:52.891Z,8.23
2023-07-24T22:04:54.173Z,8.85
2023-07-24T22:09:55.459Z,8.27
2023-07-24T22:14:56.757Z,8.07
2023-07-24T22:19:58.159Z,13.60
2023-07-24T22:24:59.704Z,7.85
2023-07-24T22:30:01.386Z,6.10
2023-07-24T22:35:02.721Z,6.97
2023-07-24T22:40:04.268Z,10.15
2023-07-24T22:45:05.879Z,5.50
2023-07-24T22:50:07.354Z,8.63
2023-07-24T22:55:08.704Z,7.10
2023-07-24T23:00:10.211Z,8.10
2023-07-24T23:05:11.565Z,11.10
2023-07-24T23:10:12.905Z,7.03
2023-07-24T23:15:14.251Z,6.43
2023-07-24T23:20:15.687Z,7.20
2023-07-24T23:25:17.050Z,5.97
2023-07-24T23:30:18.359Z,9.93
2023-07-24T23:35:19.700Z,8.77
2023-07-24T23:40:21.080Z,8.17
2023-07-24T23:45:22.409Z,6.30
2023-07-24T23:50:23.748Z,7.53
2023-07-24T23:55:25.099Z,6.60
